Terminal Aerodrome Forecast
Issued by NWS

Home | Current Version | Previous Version | Text Only | Print | Product List | Glossary On
Versions: 1 2 3 4 5 6 7 8 9 10 11 12 13 14
716
FTUS46 KHNX 211401 AAA
TAFFAT
TAF AMD
KFAT 211401Z 2114/2212 00000KT 5SM HZ BKN130 OVC150
      TEMPO 2114/2117 3SM BR
     FM212000 VRB03KT 5SM HZ SCT200
     FM220800 VRB03KT 4SM HZ BR FEW250=

USA.gov is the U.S. government's official web portal to all federal, state and local government web resources and services.